createdAt,value
2018-01-30T00:01:19.033Z,3.00
2018-01-30T00:03:47.130Z,4.23
2018-01-30T00:06:15.256Z,3.83
2018-01-30T00:08:43.338Z,6.10
2018-01-30T00:11:12.212Z,7.63
2018-01-30T00:13:40.305Z,3.60
2018-01-30T00:16:09.177Z,5.33
2018-01-30T00:18:37.322Z,4.67
2018-01-30T00:21:05.400Z,5.47
2018-01-30T00:23:33.480Z,10.93
2018-01-30T00:26:01.569Z,6.93
2018-01-30T00:28:29.686Z,7.57
2018-01-30T00:30:57.777Z,6.43
2018-01-30T00:33:25.888Z,5.47
2018-01-30T00:35:54.745Z,9.17
2018-01-30T00:38:22.851Z,5.93
2018-01-30T00:40:50.936Z,6.33
2018-01-30T00:43:19.822Z,4.57
2018-01-30T00:45:48.680Z,10.37
2018-01-30T00:48:16.793Z,2.50
2018-01-30T00:50:45.649Z,11.30
2018-01-30T00:53:13.766Z,6.63
2018-01-30T00:55:41.869Z,7.93
2018-01-30T00:58:09.978Z,7.07
2018-01-30T01:00:38.070Z,6.83
2018-01-30T01:03:06.954Z,17.03
2018-01-30T01:05:35.804Z,8.50
2018-01-30T01:08:03.917Z,7.27
2018-01-30T01:10:32.770Z,7.20
2018-01-30T01:13:00.893Z,5.93
2018-01-30T01:15:29.745Z,4.23
2018-01-30T01:17:57.875Z,9.07
2018-01-30T01:20:25.944Z,9.23
2018-01-30T01:22:54.058Z,6.40
2018-01-30T01:25:22.146Z,9.20
2018-01-30T01:27:50.262Z,13.30
2018-01-30T01:30:18.344Z,4.33
2018-01-30T01:32:46.457Z,6.60
2018-01-30T01:35:14.547Z,11.27
2018-01-30T01:37:43.428Z,5.80
2018-01-30T01:40:11.522Z,8.97
2018-01-30T01:42:40.399Z,4.90
2018-01-30T01:45:08.476Z,7.83
2018-01-30T01:47:37.352Z,12.87
2018-01-30T01:50:05.466Z,7.27
2018-01-30T01:52:33.565Z,5.23
2018-01-30T01:55:01.662Z,9.30
2018-01-30T01:57:29.768Z,7.90
2018-01-30T01:59:57.856Z,8.70
2018-01-30T02:02:25.968Z,10.20
2018-01-30T02:04:54.056Z,19.93
2018-01-30T02:07:22.461Z,6.13
2018-01-30T02:09:51.312Z,9.40
2018-01-30T02:12:19.432Z,7.93
2018-01-30T02:14:47.533Z,15.30
2018-01-30T02:17:15.643Z,8.83
2018-01-30T02:19:43.733Z,4.37
2018-01-30T02:22:12.614Z,9.43
2018-01-30T02:24:40.697Z,7.70
2018-01-30T02:27:09.572Z,8.23
2018-01-30T02:29:37.661Z,11.63
2018-01-30T02:32:06.601Z,14.60
2018-01-30T02:34:34.698Z,8.00
2018-01-30T02:37:02.801Z,4.77
2018-01-30T02:39:31.661Z,11.27
2018-01-30T02:41:59.787Z,7.17
2018-01-30T02:44:27.869Z,7.20
2018-01-30T02:46:55.960Z,14.27
2018-01-30T02:49:24.074Z,9.53
2018-01-30T02:51:52.929Z,7.60
2018-01-30T02:54:21.060Z,6.47
2018-01-30T02:56:49.145Z,8.70
2018-01-30T02:59:17.253Z,5.20
2018-01-30T03:01:45.347Z,6.43
2018-01-30T03:04:13.448Z,11.10
2018-01-30T03:06:41.546Z,8.73
2018-01-30T03:09:09.666Z,6.57
2018-01-30T03:11:38.533Z,15.57
2018-01-30T03:14:06.637Z,5.93
2018-01-30T03:16:35.501Z,17.27
2018-01-30T03:19:03.629Z,10.03
2018-01-30T03:21:31.728Z,6.87
2018-01-30T03:23:59.837Z,11.90
2018-01-30T03:26:28.688Z,4.17
2018-01-30T03:28:56.803Z,9.50
2018-01-30T03:31:25.658Z,6.73
2018-01-30T03:33:53.782Z,5.07
2018-01-30T03:36:22.628Z,14.27
2018-01-30T03:38:50.749Z,15.20
2018-01-30T03:41:18.850Z,18.60
2018-01-30T03:43:46.956Z,10.63
2018-01-30T03:46:15.053Z,7.00
2018-01-30T03:48:43.934Z,13.80
2018-01-30T03:51:12.789Z,20.47
2018-01-30T03:53:40.905Z,10.70
2018-01-30T03:56:09.760Z,8.30
2018-01-30T03:58:37.874Z,19.20
2018-01-30T04:01:06.729Z,8.80
2018-01-30T04:03:34.841Z,11.37
2018-01-30T04:06:02.973Z,7.93
2018-01-30T04:08:31.089Z,7.87
2018-01-30T04:10:59.193Z,10.93
2018-01-30T04:13:27.302Z,17.13
2018-01-30T04:15:55.390Z,8.63
2018-01-30T04:18:24.264Z,9.37
2018-01-30T04:20:52.356Z,13.33
2018-01-30T04:23:21.243Z,11.53
2018-01-30T04:25:50.096Z,14.30
2018-01-30T04:28:18.206Z,9.03
2018-01-30T04:30:47.071Z,10.10
2018-01-30T04:33:15.185Z,9.67
2018-01-30T04:35:43.277Z,8.03
2018-01-30T04:38:11.384Z,8.97
2018-01-30T04:40:39.482Z,15.97
2018-01-30T04:43:07.596Z,11.40
2018-01-30T04:45:35.713Z,9.43
2018-01-30T04:48:03.820Z,6.60
2018-01-30T04:50:31.913Z,8.00
2018-01-30T04:53:00.069Z,9.77
2018-01-30T04:55:28.913Z,11.13
2018-01-30T04:57:57.024Z,13.47
2018-01-30T05:00:25.898Z,12.60
2018-01-30T05:02:54.170Z,9.27
2018-01-30T05:05:22.252Z,8.50
2018-01-30T05:07:51.143Z,13.80
2018-01-30T05:10:20.002Z,7.20
2018-01-30T05:12:48.110Z,9.43
2018-01-30T05:15:16.212Z,15.37
2018-01-30T05:17:44.328Z,12.00
2018-01-30T05:20:12.417Z,9.33
2018-01-30T05:22:40.505Z,5.70
2018-01-30T05:25:09.382Z,9.00
2018-01-30T05:27:37.477Z,10.00
2018-01-30T05:30:06.365Z,18.87
2018-01-30T05:32:35.224Z,20.97
2018-01-30T05:35:03.454Z,9.43
2018-01-30T05:37:31.541Z,16.90
2018-01-30T05:39:59.811Z,15.60
2018-01-30T05:42:28.141Z,14.00
2018-01-30T05:44:56.249Z,6.80
2018-01-30T05:47:24.369Z,14.27
2018-01-30T05:49:52.486Z,8.90
2018-01-30T05:52:21.333Z,9.10
2018-01-30T05:54:49.445Z,16.10
2018-01-30T05:57:17.540Z,21.83
2018-01-30T05:59:45.656Z,17.80
2018-01-30T06:02:13.759Z,13.83
2018-01-30T06:04:43.328Z,8.13
2018-01-30T06:07:11.602Z,7.47
2018-01-30T06:09:39.709Z,9.40
2018-01-30T06:12:08.570Z,12.43
2018-01-30T06:14:36.679Z,7.03
2018-01-30T06:17:05.537Z,12.73
2018-01-30T17:00:00.372Z,19.63
2018-01-30T17:02:28.521Z,25.03
2018-01-30T17:04:57.534Z,24.23
2018-01-30T17:07:25.670Z,22.40
2018-01-30T17:09:53.782Z,26.40
2018-01-30T17:12:22.660Z,27.10
2018-01-30T17:14:51.528Z,22.30
2018-01-30T17:17:19.653Z,19.80
2018-01-30T17:19:47.761Z,23.17
2018-01-30T17:22:15.881Z,15.53
2018-01-30T17:24:44.745Z,19.40
2018-01-30T17:27:12.898Z,18.30
2018-01-30T17:29:40.989Z,29.50
2018-01-30T17:32:09.100Z,20.77
2018-01-30T17:34:37.195Z,18.50
2018-01-30T17:37:05.322Z,21.00
2018-01-30T17:39:34.197Z,16.50
2018-01-30T17:42:02.369Z,17.10
2018-01-30T17:44:30.464Z,18.50
2018-01-30T17:46:59.393Z,18.80
2018-01-30T17:49:27.497Z,20.73
2018-01-30T17:51:55.617Z,25.67
2018-01-30T17:54:23.717Z,34.30
2018-01-30T17:56:52.057Z,25.63
2018-01-30T17:59:20.205Z,26.10
2018-01-30T18:01:48.329Z,19.70
2018-01-30T18:04:16.428Z,21.70
2018-01-30T18:06:44.671Z,19.23
2018-01-30T18:09:12.836Z,12.70
2018-01-30T18:11:41.161Z,15.53
2018-01-30T18:14:10.159Z,26.53
2018-01-30T18:16:38.355Z,21.77
2018-01-30T18:19:06.480Z,18.53
2018-01-30T18:21:34.585Z,20.60
2018-01-30T18:24:02.709Z,21.47
2018-01-30T18:26:30.818Z,25.03
2018-01-30T18:28:58.968Z,33.40
2018-01-30T18:31:27.072Z,34.27
2018-01-30T18:33:55.192Z,24.93
2018-01-30T18:36:23.285Z,15.80
2018-01-30T18:38:51.413Z,17.00
2018-01-30T18:41:19.493Z,25.43
2018-01-30T18:43:48.387Z,22.70
2018-01-30T18:46:17.246Z,78.80
2018-01-30T18:48:45.369Z,79.07
2018-01-30T18:51:13.472Z,58.70
2018-01-30T18:53:41.614Z,17.33
2018-01-30T18:56:09.737Z,16.77
2018-01-30T18:58:37.838Z,19.57
2018-01-30T19:01:06.702Z,23.80
2018-01-30T19:03:34.850Z,25.70
2018-01-30T19:06:02.994Z,19.10
2018-01-30T19:08:31.113Z,22.93
2018-01-30T19:10:59.357Z,17.07
2018-01-30T19:13:27.474Z,15.20
2018-01-30T19:15:56.001Z,19.20
2018-01-30T19:18:24.271Z,17.20
2018-01-30T19:20:52.378Z,17.10
2018-01-30T19:23:20.484Z,16.20
2018-01-30T19:25:48.585Z,16.70
2018-01-30T19:28:17.464Z,20.37
2018-01-30T19:30:46.344Z,17.33
2018-01-30T19:33:14.462Z,27.73
2018-01-30T19:35:42.552Z,16.73
2018-01-30T19:38:10.694Z,16.70
2018-01-30T19:40:38.837Z,21.47
2018-01-30T19:43:06.982Z,23.43
2018-01-30T19:45:35.073Z,15.47
2018-01-30T19:48:03.751Z,18.77
2018-01-30T19:50:31.864Z,17.23
2018-01-30T19:53:00.745Z,30.43
2018-01-30T19:55:29.613Z,25.67
2018-01-30T19:57:57.742Z,40.23
2018-01-30T20:00:25.868Z,29.20
2018-01-30T20:02:53.997Z,27.30
2018-01-30T20:05:22.109Z,28.10
2018-01-30T20:07:50.229Z,27.40
2018-01-30T20:10:18.337Z,20.97
2018-01-30T20:12:46.479Z,23.90
2018-01-30T20:15:14.581Z,20.77
2018-01-30T20:17:42.696Z,43.83
2018-01-30T20:20:11.568Z,25.73
2018-01-30T20:22:39.688Z,26.50
2018-01-30T20:25:07.906Z,27.23
2018-01-30T20:27:36.185Z,32.27
2018-01-30T20:30:04.360Z,22.83
2018-01-30T20:32:32.483Z,29.83
2018-01-30T20:35:00.775Z,28.67
2018-01-30T20:37:29.748Z,27.50
2018-01-30T20:39:57.857Z,27.80
2018-01-30T20:42:26.152Z,32.63
2018-01-30T20:44:54.353Z,22.23
2018-01-30T20:47:22.638Z,24.70
2018-01-30T20:49:50.824Z,29.93
2018-01-30T20:52:18.950Z,34.67
2018-01-30T20:54:47.072Z,28.70
2018-01-30T20:57:15.180Z,31.90
2018-01-30T20:59:44.082Z,25.33
2018-01-30T21:02:12.581Z,28.00
2018-01-30T21:04:41.589Z,34.33
2018-01-30T21:07:09.678Z,24.07
2018-01-30T21:09:38.557Z,29.80
2018-01-30T21:12:07.428Z,25.03
2018-01-30T21:14:35.555Z,24.40
2018-01-30T21:17:03.661Z,26.93
2018-01-30T21:19:31.775Z,28.20
2018-01-30T21:22:00.661Z,27.40
2018-01-30T21:24:28.772Z,23.00
2018-01-30T21:26:56.861Z,29.40
2018-01-30T21:29:24.981Z,25.60
2018-01-30T21:31:53.857Z,28.90
2018-01-30T21:34:21.993Z,33.67
2018-01-30T21:36:50.088Z,24.67
2018-01-30T21:39:18.209Z,30.70
2018-01-30T21:41:46.311Z,27.17
2018-01-30T21:44:14.433Z,24.00
2018-01-30T21:46:43.310Z,25.70
2018-01-30T21:49:11.437Z,18.97
2018-01-30T21:51:39.541Z,23.53
2018-01-30T21:54:07.665Z,23.83
2018-01-30T21:56:35.789Z,21.07
2018-01-30T21:59:03.893Z,22.30
2018-01-30T22:01:32.752Z,23.13
2018-01-30T22:04:00.873Z,21.60
2018-01-30T22:06:28.998Z,23.03
2018-01-30T22:08:57.132Z,24.13
2018-01-30T22:11:25.241Z,23.47
2018-01-30T22:13:53.364Z,25.30
2018-01-30T22:16:21.468Z,21.47
2018-01-30T22:18:49.594Z,20.43
2018-01-30T22:21:18.474Z,29.37
2018-01-30T22:23:46.594Z,22.60
2018-01-30T22:26:14.707Z,20.60
2018-01-30T22:28:42.821Z,26.07
2018-01-30T22:31:10.917Z,20.67
2018-01-30T22:33:39.032Z,21.47
2018-01-30T22:36:07.895Z,16.77
2018-01-30T22:38:36.016Z,24.90
2018-01-30T22:41:04.919Z,27.73
2018-01-30T22:43:33.048Z,17.93
2018-01-30T22:46:01.148Z,24.07
